CSAV Rio Aysen — D5DX2 — position and weather

sailwx.info

Track history (hours):
 
Tides and Currents Weather Stations Pressure Air Temp Water Temp Dewpoint Dewpoint Depression Visibility Wind Speed Wind Dir Waves Ship Positions

CSAV Rio Aysen

Last reported at 2018-Jun-19 13:22 UTC. Time now 2018-Jun-25 09:56 UTC.
Position N 08°56' W 014°03'.

Length 183 m; draft 8.3 m.

Type: Cargo ship. MMSI: 636015991.

Date/timePositionNaut miles runAvg speedWind from/ knotsBaromVisibWave heightAir tempDewpointWater temp
2018-Jun-19 13:22N 08°56' W 014°03'616.1
2018-Jun-19 12:59N 09°01' W 014°00'815.9
2018-Jun-19 12:30N 09°08' W 013°56'815.8
2018-Jun-19 12:00N 09°14' W 013°52'714.6
2018-Jun-19 11:30N 09°20' W 013°47'510.3
2018-Jun-19 11:00N 09°24' W 013°44'4 8.0
2018-Jun-19 10:31N 09°28' W 013°44'3 6.1
2018-Jun-19 10:00N 09°31' W 013°43'0 0.2
2018-Jun-19 09:30N 09°31' W 013°43'0 0.0
2018-Jun-19 09:00N 09°31' W 013°43'0 0.0
2018-Jun-19 08:30N 09°31' W 013°43'0 0.0
2018-Jun-19 08:00N 09°31' W 013°43'0 0.0
2018-Jun-19 07:30N 09°31' W 013°43'0 0.0
2018-Jun-19 07:00N 09°31' W 013°43'0 0.0
2018-Jun-19 06:30N 09°31' W 013°43'0 0.0
2018-Jun-19 06:00N 09°31' W 013°43'0 0.0
2018-Jun-19 05:30N 09°31' W 013°43'0 0.0
2018-Jun-19 05:00N 09°31' W 013°43'0 0.0
2018-Jun-19 04:30N 09°31' W 013°43'0 0.0
2018-Jun-19 04:00N 09°31' W 013°43'0 0.0
2018-Jun-19 03:30N 09°31' W 013°43'0 0.0
2018-Jun-19 02:57N 09°31' W 013°43'0 0.0
2018-Jun-19 02:30N 09°31' W 013°43'0 0.0
2018-Jun-19 02:00N 09°31' W 013°43'0 0.0
2018-Jun-19 01:30N 09°31' W 013°43'0 0.0
2018-Jun-19 01:00N 09°31' W 013°43'0 0.0
2018-Jun-19 00:30N 09°31' W 013°43'0 0.0
2018-Jun-19 00:00N 09°31' W 013°43'0 0.0
2018-Jun-18 23:30N 09°31' W 013°43'0 0.0
2018-Jun-18 23:00N 09°31' W 013°43'0 0.0
2018-Jun-18 22:30N 09°31' W 013°43'0 0.0
2018-Jun-18 21:57N 09°31' W 013°43'0 0.0
2018-Jun-18 21:30N 09°31' W 013°43'0 0.0
2018-Jun-18 21:00N 09°31' W 013°43'0 0.0
2018-Jun-18 20:30N 09°31' W 013°43'0 0.0
2018-Jun-18 20:00N 09°31' W 013°43'0 0.0
2018-Jun-18 19:30N 09°31' W 013°43'0 0.0
2018-Jun-18 19:00N 09°31' W 013°43'0 0.0
2018-Jun-18 18:30N 09°31' W 013°43'0 0.0
2018-Jun-18 18:00N 09°31' W 013°43'0 0.0
2018-Jun-18 17:30N 09°31' W 013°43'0 0.0
2018-Jun-18 17:00N 09°31' W 013°43'0 0.0
2018-Jun-18 16:30N 09°31' W 013°43'0 0.0
2018-Jun-18 16:00N 09°31' W 013°43'0 0.0
2018-Jun-18 15:30N 09°31' W 013°43'0 0.0
2018-Jun-18 15:00N 09°31' W 013°43'0 0.0
2018-Jun-18 14:30N 09°31' W 013°43'0 0.0
2018-Jun-18 14:00N 09°31' W 013°43'0 0.0
2018-Jun-18 13:30N 09°31' W 013°43'0 0.0
2018-Jun-18 12:57N 09°31' W 013°43'0 0.0
2018-Jun-18 12:30N 09°31' W 013°43'0 0.0
2018-Jun-18 10:48N 09°31' W 013°43'0 0.0
2018-Jun-18 10:30N 09°31' W 013°43'0 0.0
2018-Jun-18 10:00N 09°31' W 013°43'0 0.0
2018-Jun-18 09:30N 09°31' W 013°43'0 0.0
2018-Jun-18 09:00N 09°31' W 013°43'0 0.0
2018-Jun-18 08:18N 09°31' W 013°43'1 2.0
2018-Jun-18 08:00N 09°30' W 013°44'3 6.3
2018-Jun-18 07:30N 09°27' W 013°43'1 2.4
2018-Jun-18 07:00N 09°26' W 013°43'0 0.5
2018-Jun-18 06:30N 09°26' W 013°43'0 0.8
2018-Jun-18 06:00N 09°26' W 013°43'1 1.9
2018-Jun-18 05:30N 09°25' W 013°43'510.3
2018-Jun-18 05:00N 09°21' W 013°47'815.2
2018-Jun-18 04:31N 09°17' W 013°53'814.9
2018-Jun-18 03:59N 09°16' W 014°01'714.7
2018-Jun-18 03:31N 09°17' W 014°08'714.3
2018-Jun-18 03:01N 09°17' W 014°15'  
2018-Jun-13 05:31N 27°41' W 016°27'215.4
2018-Jun-13 05:25N 27°43' W 016°26'615.5
2018-Jun-13 05:00N 27°49' W 016°25'1315.8
2018-Jun-13 04:11N 28°01' W 016°19'315.8
2018-Jun-13 04:00N 28°03' W 016°17'816.2
2018-Jun-13 03:30N 28°09' W 016°12'816.2
2018-Jun-13 03:01N 28°16' W 016°06'815.7
2018-Jun-13 02:31N 28°22' W 016°00'815.4
2018-Jun-13 02:00N 28°27' W 015°54'815.2
2018-Jun-13 01:30N 28°33' W 015°49'715.0
2018-Jun-13 01:00N 28°39' W 015°43'714.8
2018-Jun-13 00:30N 28°45' W 015°39'815.1
2018-Jun-12 23:57N 28°53' W 015°36'715.3
2018-Jun-12 23:30N 28°60' W 015°34'815.3
2018-Jun-12 23:00N 29°07' W 015°31'1115.2
2018-Jun-12 22:16N 29°18' W 015°27'715.2
2018-Jun-12 21:48N 29°24' W 015°24'1515.3
2018-Jun-12 20:49N 29°39' W 015°19'1215.2
2018-Jun-12 20:01N 29°51' W 015°15'1115.2
2018-Jun-12 19:15N 30°01' W 015°11'415.0
2018-Jun-12 19:00N 30°05' W 015°10'915.0
2018-Jun-12 18:25N 30°13' W 015°07'715.3
2018-Jun-12 17:59N 30°20' W 015°04'  
Track history (hours):
 
Tides and Currents Weather Stations Pressure Air Temp Water Temp Dewpoint Dewpoint Depression Visibility Wind Speed Wind Dir Waves Ship Positions

CSAV Rio Aysen

Last reported at 2018-Jun-19 13:22 UTC. Time now 2018-Jun-25 09:56 UTC.
Position N 08°56' W 014°03'.

Length 183 m; draft 8.3 m.

Type: Cargo ship. MMSI: 636015991.

Date/timePositionNaut miles runAvg speedWind from/ knotsBaromVisibWave heightAir tempDewpointWater temp
2018-Jun-19 13:22N 08°56' W 014°03'616.1
2018-Jun-19 12:59N 09°01' W 014°00'815.9
2018-Jun-19 12:30N 09°08' W 013°56'815.8
2018-Jun-19 12:00N 09°14' W 013°52'714.6
2018-Jun-19 11:30N 09°20' W 013°47'510.3
2018-Jun-19 11:00N 09°24' W 013°44'4 8.0
2018-Jun-19 10:31N 09°28' W 013°44'3 6.1
2018-Jun-19 10:00N 09°31' W 013°43'0 0.2
2018-Jun-19 09:30N 09°31' W 013°43'0 0.0
2018-Jun-19 09:00N 09°31' W 013°43'0 0.0
2018-Jun-19 08:30N 09°31' W 013°43'0 0.0
2018-Jun-19 08:00N 09°31' W 013°43'0 0.0
2018-Jun-19 07:30N 09°31' W 013°43'0 0.0
2018-Jun-19 07:00N 09°31' W 013°43'0 0.0
2018-Jun-19 06:30N 09°31' W 013°43'0 0.0
2018-Jun-19 06:00N 09°31' W 013°43'0 0.0
2018-Jun-19 05:30N 09°31' W 013°43'0 0.0
2018-Jun-19 05:00N 09°31' W 013°43'0 0.0
2018-Jun-19 04:30N 09°31' W 013°43'0 0.0
2018-Jun-19 04:00N 09°31' W 013°43'0 0.0
2018-Jun-19 03:30N 09°31' W 013°43'0 0.0
2018-Jun-19 02:57N 09°31' W 013°43'0 0.0
2018-Jun-19 02:30N 09°31' W 013°43'0 0.0
2018-Jun-19 02:00N 09°31' W 013°43'0 0.0
2018-Jun-19 01:30N 09°31' W 013°43'0 0.0
2018-Jun-19 01:00N 09°31' W 013°43'0 0.0
2018-Jun-19 00:30N 09°31' W 013°43'0 0.0
2018-Jun-19 00:00N 09°31' W 013°43'0 0.0
2018-Jun-18 23:30N 09°31' W 013°43'0 0.0
2018-Jun-18 23:00N 09°31' W 013°43'0 0.0
2018-Jun-18 22:30N 09°31' W 013°43'0 0.0
2018-Jun-18 21:57N 09°31' W 013°43'0 0.0
2018-Jun-18 21:30N 09°31' W 013°43'0 0.0
2018-Jun-18 21:00N 09°31' W 013°43'0 0.0
2018-Jun-18 20:30N 09°31' W 013°43'0 0.0
2018-Jun-18 20:00N 09°31' W 013°43'0 0.0
2018-Jun-18 19:30N 09°31' W 013°43'0 0.0
2018-Jun-18 19:00N 09°31' W 013°43'0 0.0
2018-Jun-18 18:30N 09°31' W 013°43'0 0.0
2018-Jun-18 18:00N 09°31' W 013°43'0 0.0
2018-Jun-18 17:30N 09°31' W 013°43'0 0.0
2018-Jun-18 17:00N 09°31' W 013°43'0 0.0
2018-Jun-18 16:30N 09°31' W 013°43'0 0.0
2018-Jun-18 16:00N 09°31' W 013°43'0 0.0
2018-Jun-18 15:30N 09°31' W 013°43'0 0.0
2018-Jun-18 15:00N 09°31' W 013°43'0 0.0
2018-Jun-18 14:30N 09°31' W 013°43'0 0.0
2018-Jun-18 14:00N 09°31' W 013°43'0 0.0
2018-Jun-18 13:30N 09°31' W 013°43'0 0.0
2018-Jun-18 12:57N 09°31' W 013°43'0 0.0
2018-Jun-18 12:30N 09°31' W 013°43'0 0.0
2018-Jun-18 10:48N 09°31' W 013°43'0 0.0
2018-Jun-18 10:30N 09°31' W 013°43'0 0.0
2018-Jun-18 10:00N 09°31' W 013°43'0 0.0
2018-Jun-18 09:30N 09°31' W 013°43'0 0.0
2018-Jun-18 09:00N 09°31' W 013°43'0 0.0
2018-Jun-18 08:18N 09°31' W 013°43'1 2.0
2018-Jun-18 08:00N 09°30' W 013°44'3 6.3
2018-Jun-18 07:30N 09°27' W 013°43'1 2.4
2018-Jun-18 07:00N 09°26' W 013°43'0 0.5
2018-Jun-18 06:30N 09°26' W 013°43'0 0.8
2018-Jun-18 06:00N 09°26' W 013°43'1 1.9
2018-Jun-18 05:30N 09°25' W 013°43'510.3
2018-Jun-18 05:00N 09°21' W 013°47'815.2
2018-Jun-18 04:31N 09°17' W 013°53'814.9
2018-Jun-18 03:59N 09°16' W 014°01'714.7
2018-Jun-18 03:31N 09°17' W 014°08'714.3
2018-Jun-18 03:01N 09°17' W 014°15'  
2018-Jun-13 05:31N 27°41' W 016°27'215.4
2018-Jun-13 05:25N 27°43' W 016°26'615.5
2018-Jun-13 05:00N 27°49' W 016°25'1315.8
2018-Jun-13 04:11N 28°01' W 016°19'315.8
2018-Jun-13 04:00N 28°03' W 016°17'816.2
2018-Jun-13 03:30N 28°09' W 016°12'816.2
2018-Jun-13 03:01N 28°16' W 016°06'815.7
2018-Jun-13 02:31N 28°22' W 016°00'815.4
2018-Jun-13 02:00N 28°27' W 015°54'815.2
2018-Jun-13 01:30N 28°33' W 015°49'715.0
2018-Jun-13 01:00N 28°39' W 015°43'714.8
2018-Jun-13 00:30N 28°45' W 015°39'815.1
2018-Jun-12 23:57N 28°53' W 015°36'715.3
2018-Jun-12 23:30N 28°60' W 015°34'815.3
2018-Jun-12 23:00N 29°07' W 015°31'1115.2
2018-Jun-12 22:16N 29°18' W 015°27'715.2
2018-Jun-12 21:48N 29°24' W 015°24'1515.3
2018-Jun-12 20:49N 29°39' W 015°19'1215.2
2018-Jun-12 20:01N 29°51' W 015°15'1115.2
2018-Jun-12 19:15N 30°01' W 015°11'415.0
2018-Jun-12 19:00N 30°05' W 015°10'915.0
2018-Jun-12 18:25N 30°13' W 015°07'715.3
2018-Jun-12 17:59N 30°20' W 015°04'  

Dump ship's entire track history